GMT,Max TemperatureF,Mean TemperatureF,Min TemperatureF,Max Dew PointF,MeanDew PointF,Min DewpointF,Max Humidity, Mean Humidity, Min Humidity, Max Sea Level PressureIn, Mean Sea Level PressureIn, Min Sea Level PressureIn, Max VisibilityMiles, Mean VisibilityMiles, Min VisibilityMiles, Max Wind SpeedMPH, Mean Wind SpeedMPH, Max Gust SpeedMPH,PrecipitationIn, CloudCover, Events, WindDirDegrees
2014-2-1,48,44,41,48,38,32,100,73,46,29.42,29.24,29.00,19,8,2,31,15,44,0.00,2,Rain,220
2014-2-2,50,46,41,40,37,34,93,71,43,29.86,29.69,29.44,19,10,6,23,15,29,0.00,2,,216
2014-2-3,47,42,38,41,38,35,93,79,55,29.83,29.63,29.44,19,10,6,20,11,,0.00,4,,133
2014-2-4,48,44,39,40,38,34,87,76,50,29.56,29.42,29.12,19,9,4,24,13,33,0.02,4,Rain,176
2014-2-5,50,46,41,45,40,36,93,75,56,29.24,28.99,28.85,16,8,4,28,21,41,0.08,4,Rain,192
2014-2-6,50,46,42,48,42,37,100,82,62,29.42,29.22,28.94,18,8,1,22,16,25,0.28,4,Rain,190
2014-2-7,49,44,39,48,40,32,100,78,46,29.44,29.20,28.85,19,7,2,24,12,36,0.02,4,Rain,230
2014-2-8,49,46,44,46,39,32,93,74,50,29.14,28.90,28.82,19,8,2,28,20,43,0.08,3,Rain,208
2014-2-9,47,44,40,38,34,28,81,65,42,29.27,29.08,28.88,19,9,6,29,21,41,0.00,3,Rain,228
2014-2-10,49,43,37,42,37,33,100,83,64,29.56,29.32,29.21,19,9,4,16,7,,0.04,4,Rain,228
2014-2-11,47,41,35,43,35,30,93,75,43,29.59,29.43,29.21,19,9,4,25,12,36,0.08,3,Rain,222
2014-2-12,48,42,36,43,36,30,93,74,49,29.62,29.35,29.09,19,9,3,32,16,47,0.31,3,Rain-Thunderstorm,211
2014-2-13,47,42,38,36,33,30,81,66,45,29.53,29.31,29.21,19,9,6,26,17,30,0.00,2,,236
2014-2-14,54,46,37,50,40,32,94,81,60,29.55,29.22,28.80,19,8,3,39,15,56,0.35,5,Rain,180
2014-2-15,51,46,41,41,38,36,87,67,51,29.59,29.20,28.85,19,9,6,41,29,53,0.02,4,Rain,237
2014-2-16,51,43,35,40,36,30,100,74,38,29.80,29.73,29.59,19,10,4,13,10,,0.00,1,Rain,228
2014-2-17,51,44,36,45,41,37,100,83,58,29.81,29.76,29.71,19,8,3,17,9,26,0.01,4,Rain,171
2014-2-18,52,46,41,47,44,39,93,88,75,29.83,29.78,29.74,19,9,6,14,9,,0.24,4,Rain,203
2014-2-19,50,44,39,46,42,38,100,88,66,29.92,29.87,29.80,19,8,0,15,8,,0.00,5,Fog-Rain,221
2014-2-20,56,49,42,50,45,37,100,84,49,29.79,29.57,29.47,19,7,2,21,13,26,0.04,4,Rain,218
2014-2-21,51,44,37,39,35,32,93,70,37,29.68,29.63,29.56,19,9,6,24,12,34,0.00,2,Rain,234
2014-2-22,53,46,40,41,37,33,87,68,38,29.91,29.80,29.65,19,10,6,18,13,,0.00,2,,228
2014-2-23,54,50,45,45,43,40,87,73,57,29.88,29.83,29.77,19,10,6,23,17,37,0.00,5,Rain,197
2014-2-24,58,51,44,46,43,40,87,74,50,29.79,29.67,29.53,19,10,6,20,12,31,0.02,3,Rain,181
2014-2-25,51,46,42,46,41,37,93,78,58,29.71,29.54,29.47,19,9,3,22,15,33,0.12,3,Rain-Snow,200
2014-2-26,53,45,37,41,37,34,93,73,38,30.02,29.91,29.73,19,11,6,17,9,,0.00,3,Rain,224
2014-2-27,53,45,37,45,38,34,93,73,39,29.95,29.73,29.62,19,9,3,21,14,31,0.08,3,Rain,222
2014-2-28,47,41,35,41,38,31,93,85,63,29.65,29.49,29.33,19,8,4,15,8,,0.20,5,Rain,53